sensor_id;sensor_type;location;lat;lon;timestamp;P1;durP1;ratioP1;P2;durP2;ratioP2
33160;SDS011;19522;45.656;11.302;2024-03-02T00:00:08;9.95;;;3.00;;
33160;SDS011;19522;45.656;11.302;2024-03-02T00:05:06;12.10;;;2.40;;
33160;SDS011;19522;45.656;11.302;2024-03-02T00:07:32;5.72;;;2.90;;
33160;SDS011;19522;45.656;11.302;2024-03-02T00:09:58;8.10;;;2.97;;
33160;SDS011;19522;45.656;11.302;2024-03-02T00:12:24;16.90;;;3.75;;
33160;SDS011;19522;45.656;11.302;2024-03-02T00:14:50;11.13;;;3.00;;
33160;SDS011;19522;45.656;11.302;2024-03-02T00:17:17;10.38;;;3.10;;
33160;SDS011;19522;45.656;11.302;2024-03-02T00:19:50;12.13;;;2.92;;
33160;SDS011;19522;45.656;11.302;2024-03-02T00:22:16;12.93;;;3.60;;
33160;SDS011;19522;45.656;11.302;2024-03-02T00:24:42;9.27;;;3.63;;
33160;SDS011;19522;45.656;11.302;2024-03-02T00:27:08;10.15;;;3.30;;
33160;SDS011;19522;45.656;11.302;2024-03-02T00:29:37;7.43;;;2.60;;
33160;SDS011;19522;45.656;11.302;2024-03-02T00:32:07;15.18;;;3.88;;
33160;SDS011;19522;45.656;11.302;2024-03-02T00:34:38;9.48;;;2.72;;
33160;SDS011;19522;45.656;11.302;2024-03-02T00:37:06;7.93;;;2.95;;
33160;SDS011;19522;45.656;11.302;2024-03-02T00:39:34;9.82;;;2.70;;
33160;SDS011;19522;45.656;11.302;2024-03-02T00:41:59;9.73;;;2.72;;
33160;SDS011;19522;45.656;11.302;2024-03-02T00:44:25;12.02;;;2.83;;
33160;SDS011;19522;45.656;11.302;2024-03-02T00:46:59;11.23;;;3.58;;
33160;SDS011;19522;45.656;11.302;2024-03-02T00:49:28;10.65;;;2.75;;
33160;SDS011;19522;45.656;11.302;2024-03-02T00:51:54;11.35;;;2.72;;
33160;SDS011;19522;45.656;11.302;2024-03-02T00:54:20;8.93;;;3.08;;
33160;SDS011;19522;45.656;11.302;2024-03-02T00:56:48;9.82;;;2.40;;
33160;SDS011;19522;45.656;11.302;2024-03-02T00:59:14;7.22;;;2.08;;
33160;SDS011;19522;45.656;11.302;2024-03-02T01:01:40;10.25;;;2.70;;
33160;SDS011;19522;45.656;11.302;2024-03-02T01:04:05;12.52;;;3.22;;
33160;SDS011;19522;45.656;11.302;2024-03-02T01:06:31;8.70;;;2.60;;
33160;SDS011;19522;45.656;11.302;2024-03-02T01:08:57;7.32;;;2.50;;
33160;SDS011;19522;45.656;11.302;2024-03-02T01:11:23;11.02;;;2.88;;
33160;SDS011;19522;45.656;11.302;2024-03-02T01:13:48;9.95;;;2.80;;
33160;SDS011;19522;45.656;11.302;2024-03-02T01:16:14;7.18;;;2.60;;
33160;SDS011;19522;45.656;11.302;2024-03-02T01:18:41;7.78;;;2.58;;
33160;SDS011;19522;45.656;11.302;2024-03-02T01:21:09;7.80;;;2.22;;
33160;SDS011;19522;45.656;11.302;2024-03-02T01:23:35;8.18;;;2.15;;
33160;SDS011;19522;45.656;11.302;2024-03-02T01:26:00;8.43;;;2.42;;
33160;SDS011;19522;45.656;11.302;2024-03-02T01:28:26;5.22;;;2.42;;
33160;SDS011;19522;45.656;11.302;2024-03-02T01:30:51;10.18;;;2.20;;
33160;SDS011;19522;45.656;11.302;2024-03-02T01:33:17;8.35;;;2.00;;
33160;SDS011;19522;45.656;11.302;2024-03-02T01:35:43;10.55;;;2.83;;
33160;SDS011;19522;45.656;11.302;2024-03-02T01:38:09;8.20;;;1.85;;
33160;SDS011;19522;45.656;11.302;2024-03-02T01:40:35;9.35;;;1.98;;
33160;SDS011;19522;45.656;11.302;2024-03-02T01:43:01;8.02;;;2.40;;
33160;SDS011;19522;45.656;11.302;2024-03-02T01:45:27;8.63;;;2.00;;
33160;SDS011;19522;45.656;11.302;2024-03-02T01:47:53;5.13;;;1.98;;
33160;SDS011;19522;45.656;11.302;2024-03-02T01:50:28;8.07;;;1.55;;
33160;SDS011;19522;45.656;11.302;2024-03-02T01:52:55;11.00;;;1.88;;
33160;SDS011;19522;45.656;11.302;2024-03-02T01:55:21;8.38;;;1.80;;
33160;SDS011;19522;45.656;11.302;2024-03-02T01:57:49;6.53;;;2.00;;
33160;SDS011;19522;45.656;11.302;2024-03-02T02:00:22;8.55;;;1.80;;
33160;SDS011;19522;45.656;11.302;2024-03-02T02:02:49;6.65;;;2.00;;
33160;SDS011;19522;45.656;11.302;2024-03-02T02:05:16;6.47;;;1.67;;
33160;SDS011;19522;45.656;11.302;2024-03-02T02:07:42;7.53;;;1.90;;
33160;SDS011;19522;45.656;11.302;2024-03-02T02:10:08;5.75;;;1.70;;
33160;SDS011;19522;45.656;11.302;2024-03-02T02:12:34;5.82;;;1.52;;
33160;SDS011;19522;45.656;11.302;2024-03-02T02:15:00;6.22;;;1.70;;
33160;SDS011;19522;45.656;11.302;2024-03-02T02:17:26;5.78;;;1.75;;
33160;SDS011;19522;45.656;11.302;2024-03-02T02:19:51;4.32;;;1.85;;
33160;SDS011;19522;45.656;11.302;2024-03-02T02:22:17;6.20;;;1.40;;
33160;SDS011;19522;45.656;11.302;2024-03-02T02:24:42;3.85;;;1.25;;
33160;SDS011;19522;45.656;11.302;2024-03-02T02:27:08;3.85;;;1.50;;
33160;SDS011;19522;45.656;11.302;2024-03-02T02:29:35;3.50;;;1.33;;
33160;SDS011;19522;45.656;11.302;2024-03-02T02:32:03;4.68;;;1.70;;
33160;SDS011;19522;45.656;11.302;2024-03-02T02:34:29;7.72;;;2.10;;
33160;SDS011;19522;45.656;11.302;2024-03-02T02:36:54;6.93;;;1.85;;
33160;SDS011;19522;45.656;11.302;2024-03-02T02:39:20;5.70;;;1.58;;
33160;SDS011;19522;45.656;11.302;2024-03-02T02:41:49;5.88;;;1.60;;
33160;SDS011;19522;45.656;11.302;2024-03-02T02:44:15;3.72;;;1.33;;
33160;SDS011;19522;45.656;11.302;2024-03-02T02:46:40;5.57;;;1.85;;
33160;SDS011;19522;45.656;11.302;2024-03-02T02:49:06;7.13;;;1.73;;
33160;SDS011;19522;45.656;11.302;2024-03-02T02:51:32;5.00;;;1.63;;
33160;SDS011;19522;45.656;11.302;2024-03-02T02:53:57;4.07;;;1.60;;
33160;SDS011;19522;45.656;11.302;2024-03-02T02:56:23;5.22;;;1.63;;
33160;SDS011;19522;45.656;11.302;2024-03-02T02:58:48;4.55;;;1.83;;
33160;SDS011;19522;45.656;11.302;2024-03-02T03:01:17;5.50;;;1.45;;
33160;SDS011;19522;45.656;11.302;2024-03-02T03:03:45;8.45;;;2.00;;
33160;SDS011;19522;45.656;11.302;2024-03-02T03:06:11;5.28;;;1.38;;
33160;SDS011;19522;45.656;11.302;2024-03-02T03:08:37;4.43;;;1.10;;
33160;SDS011;19522;45.656;11.302;2024-03-02T03:11:03;7.05;;;1.85;;
33160;SDS011;19522;45.656;11.302;2024-03-02T03:13:30;5.65;;;1.90;;
33160;SDS011;19522;45.656;11.302;2024-03-02T03:15:56;5.05;;;1.92;;
33160;SDS011;19522;45.656;11.302;2024-03-02T03:18:21;3.22;;;1.60;;
33160;SDS011;19522;45.656;11.302;2024-03-02T03:20:47;3.50;;;1.27;;
33160;SDS011;19522;45.656;11.302;2024-03-02T03:23:12;3.95;;;1.60;;
33160;SDS011;19522;45.656;11.302;2024-03-02T03:25:41;7.07;;;1.98;;
33160;SDS011;19522;45.656;11.302;2024-03-02T03:28:07;5.35;;;1.35;;
33160;SDS011;19522;45.656;11.302;2024-03-02T03:30:35;6.45;;;1.90;;
33160;SDS011;19522;45.656;11.302;2024-03-02T03:33:02;5.32;;;1.80;;
33160;SDS011;19522;45.656;11.302;2024-03-02T03:35:27;5.32;;;2.20;;
33160;SDS011;19522;45.656;11.302;2024-03-02T03:37:53;6.55;;;2.70;;
33160;SDS011;19522;45.656;11.302;2024-03-02T03:40:18;10.10;;;2.47;;
33160;SDS011;19522;45.656;11.302;2024-03-02T03:42:44;8.23;;;2.63;;
33160;SDS011;19522;45.656;11.302;2024-03-02T03:45:10;10.05;;;2.70;;
33160;SDS011;19522;45.656;11.302;2024-03-02T03:47:35;9.38;;;2.25;;
33160;SDS011;19522;45.656;11.302;2024-03-02T03:50:01;6.80;;;2.13;;
33160;SDS011;19522;45.656;11.302;2024-03-02T03:52:29;6.88;;;2.40;;
33160;SDS011;19522;45.656;11.302;2024-03-02T03:54:55;7.18;;;1.90;;
33160;SDS011;19522;45.656;11.302;2024-03-02T03:57:20;5.20;;;1.50;;
33160;SDS011;19522;45.656;11.302;2024-03-02T03:59:46;7.55;;;1.95;;
33160;SDS011;19522;45.656;11.302;2024-03-02T04:02:11;3.95;;;1.50;;
33160;SDS011;19522;45.656;11.302;2024-03-02T04:04:38;4.15;;;1.60;;
33160;SDS011;19522;45.656;11.302;2024-03-02T04:07:03;4.20;;;1.30;;
33160;SDS011;19522;45.656;11.302;2024-03-02T04:09:29;5.05;;;1.83;;
33160;SDS011;19522;45.656;11.302;2024-03-02T04:11:57;7.53;;;1.95;;
33160;SDS011;19522;45.656;11.302;2024-03-02T04:14:26;5.53;;;1.20;;
33160;SDS011;19522;45.656;11.302;2024-03-02T04:16:54;6.30;;;1.52;;
33160;SDS011;19522;45.656;11.302;2024-03-02T04:19:20;3.97;;;2.05;;
33160;SDS011;19522;45.656;11.302;2024-03-02T04:21:46;5.57;;;1.50;;
33160;SDS011;19522;45.656;11.302;2024-03-02T04:24:11;5.57;;;1.75;;
33160;SDS011;19522;45.656;11.302;2024-03-02T04:26:37;6.88;;;1.45;;
33160;SDS011;19522;45.656;11.302;2024-03-02T04:29:02;3.28;;;1.40;;
33160;SDS011;19522;45.656;11.302;2024-03-02T04:31:28;6.28;;;1.42;;
33160;SDS011;19522;45.656;11.302;2024-03-02T04:33:53;4.50;;;1.70;;
33160;SDS011;19522;45.656;11.302;2024-03-02T04:36:19;4.50;;;1.75;;
33160;SDS011;19522;45.656;11.302;2024-03-02T04:38:44;2.78;;;1.17;;
33160;SDS011;19522;45.656;11.302;2024-03-02T04:41:10;3.53;;;1.40;;
33160;SDS011;19522;45.656;11.302;2024-03-02T04:43:35;8.43;;;1.60;;
33160;SDS011;19522;45.656;11.302;2024-03-02T04:46:01;5.32;;;1.65;;
33160;SDS011;19522;45.656;11.302;2024-03-02T04:48:26;3.60;;;1.35;;
33160;SDS011;19522;45.656;11.302;2024-03-02T04:50:52;4.90;;;1.42;;
33160;SDS011;19522;45.656;11.302;2024-03-02T04:53:18;5.55;;;1.45;;
33160;SDS011;19522;45.656;11.302;2024-03-02T04:55:43;3.83;;;1.52;;
33160;SDS011;19522;45.656;11.302;2024-03-02T04:58:09;3.95;;;1.30;;
33160;SDS011;19522;45.656;11.302;2024-03-02T05:00:35;7.70;;;2.65;;
33160;SDS011;19522;45.656;11.302;2024-03-02T05:03:00;11.38;;;2.15;;
33160;SDS011;19522;45.656;11.302;2024-03-02T05:05:26;3.22;;;1.13;;
33160;SDS011;19522;45.656;11.302;2024-03-02T05:07:52;7.10;;;1.83;;
33160;SDS011;19522;45.656;11.302;2024-03-02T05:10:17;4.68;;;1.30;;
33160;SDS011;19522;45.656;11.302;2024-03-02T05:12:43;4.72;;;1.60;;
33160;SDS011;19522;45.656;11.302;2024-03-02T05:15:09;3.42;;;1.40;;
33160;SDS011;19522;45.656;11.302;2024-03-02T05:17:39;5.50;;;1.80;;
33160;SDS011;19522;45.656;11.302;2024-03-02T05:20:06;8.85;;;1.90;;
33160;SDS011;19522;45.656;11.302;2024-03-02T05:22:38;2.78;;;1.60;;
33160;SDS011;19522;45.656;11.302;2024-03-02T05:25:04;4.47;;;1.33;;
33160;SDS011;19522;45.656;11.302;2024-03-02T05:27:31;7.05;;;1.90;;
33160;SDS011;19522;45.656;11.302;2024-03-02T05:29:58;4.38;;;1.52;;
33160;SDS011;19522;45.656;11.302;2024-03-02T05:32:23;4.00;;;1.40;;
33160;SDS011;19522;45.656;11.302;2024-03-02T05:34:49;5.03;;;1.40;;
33160;SDS011;19522;45.656;11.302;2024-03-02T05:37:15;8.55;;;1.90;;
33160;SDS011;19522;45.656;11.302;2024-03-02T05:39:41;3.50;;;1.38;;
33160;SDS011;19522;45.656;11.302;2024-03-02T05:42:08;4.13;;;1.58;;
33160;SDS011;19522;45.656;11.302;2024-03-02T05:44:34;3.38;;;1.40;;
33160;SDS011;19522;45.656;11.302;2024-03-02T05:47:00;5.93;;;1.70;;
33160;SDS011;19522;45.656;11.302;2024-03-02T05:49:25;4.68;;;1.63;;
33160;SDS011;19522;45.656;11.302;2024-03-02T05:51:51;8.68;;;2.00;;
33160;SDS011;19522;45.656;11.302;2024-03-02T05:54:16;5.78;;;2.00;;
33160;SDS011;19522;45.656;11.302;2024-03-02T05:56:42;5.07;;;1.80;;
33160;SDS011;19522;45.656;11.302;2024-03-02T05:59:07;4.90;;;1.48;;
33160;SDS011;19522;45.656;11.302;2024-03-02T06:01:38;2.90;;;1.45;;
33160;SDS011;19522;45.656;11.302;2024-03-02T06:04:13;3.78;;;2.15;;
33160;SDS011;19522;45.656;11.302;2024-03-02T06:06:39;6.97;;;1.52;;
33160;SDS011;19522;45.656;11.302;2024-03-02T06:09:06;6.35;;;1.80;;
33160;SDS011;19522;45.656;11.302;2024-03-02T06:11:37;7.68;;;1.77;;
33160;SDS011;19522;45.656;11.302;2024-03-02T06:14:06;6.22;;;2.10;;
33160;SDS011;19522;45.656;11.302;2024-03-02T06:16:33;6.20;;;2.22;;
33160;SDS011;19522;45.656;11.302;2024-03-02T06:18:59;5.03;;;2.22;;
33160;SDS011;19522;45.656;11.302;2024-03-02T06:21:25;9.40;;;2.63;;
33160;SDS011;19522;45.656;11.302;2024-03-02T06:23:51;5.60;;;2.20;;
33160;SDS011;19522;45.656;11.302;2024-03-02T06:26:17;4.65;;;2.30;;
33160;SDS011;19522;45.656;11.302;2024-03-02T06:28:43;3.80;;;1.83;;
33160;SDS011;19522;45.656;11.302;2024-03-02T06:31:09;7.82;;;2.40;;
33160;SDS011;19522;45.656;11.302;2024-03-02T06:33:35;5.80;;;2.67;;
33160;SDS011;19522;45.656;11.302;2024-03-02T06:36:00;4.75;;;2.10;;
33160;SDS011;19522;45.656;11.302;2024-03-02T06:38:26;6.57;;;2.30;;
33160;SDS011;19522;45.656;11.302;2024-03-02T06:40:51;6.05;;;2.45;;
33160;SDS011;19522;45.656;11.302;2024-03-02T06:43:20;7.35;;;2.75;;
33160;SDS011;19522;45.656;11.302;2024-03-02T06:45:49;9.00;;;2.38;;
33160;SDS011;19522;45.656;11.302;2024-03-02T06:48:15;3.42;;;2.08;;
33160;SDS011;19522;45.656;11.302;2024-03-02T06:50:45;4.70;;;2.33;;
33160;SDS011;19522;45.656;11.302;2024-03-02T06:53:11;7.35;;;2.58;;
33160;SDS011;19522;45.656;11.302;2024-03-02T06:55:37;12.75;;;3.50;;
33160;SDS011;19522;45.656;11.302;2024-03-02T06:58:05;6.07;;;2.72;;
33160;SDS011;19522;45.656;11.302;2024-03-02T07:00:31;9.93;;;2.40;;
33160;SDS011;19522;45.656;11.302;2024-03-02T07:02:57;6.75;;;3.35;;
33160;SDS011;19522;45.656;11.302;2024-03-02T07:05:23;9.82;;;3.42;;
33160;SDS011;19522;45.656;11.302;2024-03-02T07:07:49;5.43;;;2.75;;
33160;SDS011;19522;45.656;11.302;2024-03-02T07:10:14;5.90;;;2.25;;
33160;SDS011;19522;45.656;11.302;2024-03-02T07:12:40;7.30;;;2.17;;
33160;SDS011;19522;45.656;11.302;2024-03-02T07:15:05;6.00;;;2.40;;
33160;SDS011;19522;45.656;11.302;2024-03-02T07:17:31;5.50;;;3.03;;
33160;SDS011;19522;45.656;11.302;2024-03-02T07:19:57;6.68;;;2.35;;
33160;SDS011;19522;45.656;11.302;2024-03-02T07:22:23;8.15;;;3.35;;
33160;SDS011;19522;45.656;11.302;2024-03-02T07:24:49;8.18;;;3.22;;
33160;SDS011;19522;45.656;11.302;2024-03-02T07:27:15;8.48;;;3.30;;
33160;SDS011;19522;45.656;11.302;2024-03-02T07:29:42;7.68;;;3.53;;
33160;SDS011;19522;45.656;11.302;2024-03-02T07:32:08;7.32;;;3.58;;
33160;SDS011;19522;45.656;11.302;2024-03-02T07:34:35;9.75;;;3.17;;
33160;SDS011;19522;45.656;11.302;2024-03-02T07:37:01;9.20;;;3.20;;
33160;SDS011;19522;45.656;11.302;2024-03-02T07:39:30;8.73;;;3.55;;
33160;SDS011;19522;45.656;11.302;2024-03-02T07:41:58;6.80;;;4.07;;
33160;SDS011;19522;45.656;11.302;2024-03-02T07:44:25;8.18;;;4.15;;
33160;SDS011;19522;45.656;11.302;2024-03-02T07:46:50;10.10;;;5.13;;
33160;SDS011;19522;45.656;11.302;2024-03-02T07:49:16;7.63;;;3.30;;
33160;SDS011;19522;45.656;11.302;2024-03-02T07:51:42;14.57;;;3.35;;
33160;SDS011;19522;45.656;11.302;2024-03-02T07:54:08;6.43;;;3.78;;
33160;SDS011;19522;45.656;11.302;2024-03-02T07:56:34;13.70;;;6.53;;
33160;SDS011;19522;45.656;11.302;2024-03-02T07:59:00;11.85;;;6.85;;
33160;SDS011;19522;45.656;11.302;2024-03-02T08:01:27;13.32;;;6.28;;
33160;SDS011;19522;45.656;11.302;2024-03-02T08:03:55;11.00;;;6.93;;
33160;SDS011;19522;45.656;11.302;2024-03-02T08:06:23;18.20;;;10.75;;
33160;SDS011;19522;45.656;11.302;2024-03-02T08:08:56;9.98;;;4.72;;
33160;SDS011;19522;45.656;11.302;2024-03-02T08:11:25;7.85;;;4.10;;
33160;SDS011;19522;45.656;11.302;2024-03-02T08:13:52;9.68;;;3.65;;
33160;SDS011;19522;45.656;11.302;2024-03-02T08:16:21;9.13;;;3.53;;
33160;SDS011;19522;45.656;11.302;2024-03-02T08:18:48;7.40;;;3.80;;
33160;SDS011;19522;45.656;11.302;2024-03-02T08:21:15;8.43;;;4.03;;
33160;SDS011;19522;45.656;11.302;2024-03-02T08:23:41;10.30;;;5.20;;
33160;SDS011;19522;45.656;11.302;2024-03-02T08:26:07;9.90;;;4.45;;
33160;SDS011;19522;45.656;11.302;2024-03-02T08:28:34;10.98;;;4.30;;
33160;SDS011;19522;45.656;11.302;2024-03-02T08:31:00;6.85;;;3.35;;
33160;SDS011;19522;45.656;11.302;2024-03-02T08:33:25;7.78;;;3.90;;
33160;SDS011;19522;45.656;11.302;2024-03-02T08:35:51;8.77;;;4.10;;
33160;SDS011;19522;45.656;11.302;2024-03-02T08:38:16;7.20;;;4.25;;
33160;SDS011;19522;45.656;11.302;2024-03-02T08:40:42;8.98;;;4.05;;
33160;SDS011;19522;45.656;11.302;2024-03-02T08:43:08;9.43;;;4.50;;
33160;SDS011;19522;45.656;11.302;2024-03-02T08:45:34;8.00;;;4.13;;
33160;SDS011;19522;45.656;11.302;2024-03-02T08:47:59;8.43;;;4.15;;
33160;SDS011;19522;45.656;11.302;2024-03-02T08:50:25;7.38;;;4.35;;
33160;SDS011;19522;45.656;11.302;2024-03-02T08:52:50;10.73;;;5.07;;
33160;SDS011;19522;45.656;11.302;2024-03-02T08:55:16;8.63;;;4.00;;
33160;SDS011;19522;45.656;11.302;2024-03-02T08:57:44;9.18;;;4.03;;
33160;SDS011;19522;45.656;11.302;2024-03-02T09:00:10;9.15;;;4.45;;
33160;SDS011;19522;45.656;11.302;2024-03-02T09:02:36;5.95;;;4.10;;
33160;SDS011;19522;45.656;11.302;2024-03-02T09:05:02;9.57;;;4.50;;
33160;SDS011;19522;45.656;11.302;2024-03-02T09:07:30;9.10;;;4.32;;
33160;SDS011;19522;45.656;11.302;2024-03-02T09:09:55;9.45;;;4.53;;
33160;SDS011;19522;45.656;11.302;2024-03-02T09:12:21;7.95;;;4.05;;
33160;SDS011;19522;45.656;11.302;2024-03-02T09:14:47;9.70;;;4.55;;
33160;SDS011;19522;45.656;11.302;2024-03-02T09:17:16;10.00;;;4.30;;
33160;SDS011;19522;45.656;11.302;2024-03-02T09:19:44;10.63;;;5.18;;
33160;SDS011;19522;45.656;11.302;2024-03-02T09:22:13;9.70;;;5.57;;
33160;SDS011;19522;45.656;11.302;2024-03-02T09:24:44;8.93;;;6.03;;
33160;SDS011;19522;45.656;11.302;2024-03-02T09:27:13;10.63;;;6.25;;
33160;SDS011;19522;45.656;11.302;2024-03-02T09:29:38;9.75;;;5.10;;
33160;SDS011;19522;45.656;11.302;2024-03-02T09:32:05;12.23;;;6.32;;
33160;SDS011;19522;45.656;11.302;2024-03-02T09:34:31;9.57;;;5.03;;
33160;SDS011;19522;45.656;11.302;2024-03-02T09:36:57;9.13;;;4.47;;
33160;SDS011;19522;45.656;11.302;2024-03-02T09:39:23;9.50;;;4.53;;
33160;SDS011;19522;45.656;11.302;2024-03-02T09:41:50;9.02;;;4.50;;
33160;SDS011;19522;45.656;11.302;2024-03-02T09:44:16;9.68;;;4.30;;
33160;SDS011;19522;45.656;11.302;2024-03-02T09:46:41;9.05;;;4.10;;
33160;SDS011;19522;45.656;11.302;2024-03-02T09:49:09;6.47;;;3.47;;
33160;SDS011;19522;45.656;11.302;2024-03-02T09:51:36;9.02;;;4.65;;
33160;SDS011;19522;45.656;11.302;2024-03-02T09:54:02;8.02;;;4.07;;
33160;SDS011;19522;45.656;11.302;2024-03-02T09:56:28;7.57;;;3.58;;
33160;SDS011;19522;45.656;11.302;2024-03-02T09:58:53;8.52;;;4.40;;
33160;SDS011;19522;45.656;11.302;2024-03-02T10:01:19;9.02;;;5.18;;
33160;SDS011;19522;45.656;11.302;2024-03-02T10:03:44;10.63;;;5.57;;
33160;SDS011;19522;45.656;11.302;2024-03-02T10:06:18;12.98;;;6.28;;
33160;SDS011;19522;45.656;11.302;2024-03-02T10:08:47;11.35;;;6.47;;
33160;SDS011;19522;45.656;11.302;2024-03-02T10:14:11;10.40;;;5.78;;
33160;SDS011;19522;45.656;11.302;2024-03-02T10:16:38;13.65;;;5.97;;
33160;SDS011;19522;45.656;11.302;2024-03-02T10:19:23;10.98;;;5.93;;
33160;SDS011;19522;45.656;11.302;2024-03-02T10:21:53;8.85;;;6.03;;
33160;SDS011;19522;45.656;11.302;2024-03-02T10:24:19;10.82;;;5.63;;
33160;SDS011;19522;45.656;11.302;2024-03-02T10:26:46;10.77;;;5.85;;
33160;SDS011;19522;45.656;11.302;2024-03-02T10:29:12;12.15;;;5.90;;
33160;SDS011;19522;45.656;11.302;2024-03-02T10:31:39;10.95;;;6.20;;
33160;SDS011;19522;45.656;11.302;2024-03-02T10:34:09;10.95;;;6.22;;
33160;SDS011;19522;45.656;11.302;2024-03-02T10:36:35;10.25;;;6.80;;
33160;SDS011;19522;45.656;11.302;2024-03-02T10:39:02;11.32;;;6.88;;
33160;SDS011;19522;45.656;11.302;2024-03-02T10:41:29;10.18;;;6.22;;
33160;SDS011;19522;45.656;11.302;2024-03-02T10:44:05;15.95;;;6.20;;
33160;SDS011;19522;45.656;11.302;2024-03-02T10:46:32;11.57;;;6.40;;
33160;SDS011;19522;45.656;11.302;2024-03-02T10:49:00;8.98;;;5.82;;
33160;SDS011;19522;45.656;11.302;2024-03-02T10:51:28;11.10;;;5.50;;
33160;SDS011;19522;45.656;11.302;2024-03-02T10:53:58;11.40;;;5.20;;
33160;SDS011;19522;45.656;11.302;2024-03-02T10:59:17;9.85;;;5.10;;
33160;SDS011;19522;45.656;11.302;2024-03-02T11:01:53;10.23;;;6.15;;
33160;SDS011;19522;45.656;11.302;2024-03-02T11:04:22;17.38;;;8.98;;
33160;SDS011;19522;45.656;11.302;2024-03-02T11:06:50;14.13;;;8.68;;
33160;SDS011;19522;45.656;11.302;2024-03-02T11:09:21;11.82;;;8.05;;
33160;SDS011;19522;45.656;11.302;2024-03-02T11:11:51;11.30;;;7.18;;
33160;SDS011;19522;45.656;11.302;2024-03-02T11:14:29;12.82;;;6.65;;
33160;SDS011;19522;45.656;11.302;2024-03-02T11:16:57;12.82;;;6.70;;
33160;SDS011;19522;45.656;11.302;2024-03-02T11:19:23;9.63;;;5.18;;
33160;SDS011;19522;45.656;11.302;2024-03-02T11:21:50;8.43;;;4.72;;
33160;SDS011;19522;45.656;11.302;2024-03-02T11:26:50;12.05;;;6.65;;
33160;SDS011;19522;45.656;11.302;2024-03-02T11:32:00;15.20;;;7.75;;
33160;SDS011;19522;45.656;11.302;2024-03-02T11:34:36;10.45;;;7.45;;
33160;SDS011;19522;45.656;11.302;2024-03-02T11:37:10;11.60;;;7.68;;
33160;SDS011;19522;45.656;11.302;2024-03-02T11:39:37;8.82;;;7.00;;
33160;SDS011;19522;45.656;11.302;2024-03-02T11:42:05;10.65;;;6.38;;
33160;SDS011;19522;45.656;11.302;2024-03-02T11:44:38;12.13;;;6.60;;
33160;SDS011;19522;45.656;11.302;2024-03-02T11:47:07;13.73;;;5.88;;
33160;SDS011;19522;45.656;11.302;2024-03-02T11:52:03;9.18;;;4.80;;
33160;SDS011;19522;45.656;11.302;2024-03-02T11:54:30;12.98;;;5.30;;
33160;SDS011;19522;45.656;11.302;2024-03-02T11:56:59;10.18;;;5.50;;
33160;SDS011;19522;45.656;11.302;2024-03-02T11:59:27;7.18;;;4.05;;
33160;SDS011;19522;45.656;11.302;2024-03-02T12:01:54;7.95;;;4.85;;
33160;SDS011;19522;45.656;11.302;2024-03-02T12:04:21;9.90;;;4.35;;
33160;SDS011;19522;45.656;11.302;2024-03-02T12:06:47;10.43;;;4.25;;
33160;SDS011;19522;45.656;11.302;2024-03-02T12:09:20;6.20;;;3.85;;
33160;SDS011;19522;45.656;11.302;2024-03-02T12:12:00;9.98;;;6.47;;
33160;SDS011;19522;45.656;11.302;2024-03-02T12:14:29;8.85;;;5.35;;
33160;SDS011;19522;45.656;11.302;2024-03-02T12:16:55;8.13;;;5.38;;
33160;SDS011;19522;45.656;11.302;2024-03-02T12:19:23;10.25;;;4.53;;
33160;SDS011;19522;45.656;11.302;2024-03-02T12:21:52;7.43;;;5.13;;
33160;SDS011;19522;45.656;11.302;2024-03-02T12:24:20;7.47;;;4.50;;
33160;SDS011;19522;45.656;11.302;2024-03-02T12:26:47;8.55;;;4.57;;
33160;SDS011;19522;45.656;11.302;2024-03-02T12:29:13;8.48;;;4.60;;
33160;SDS011;19522;45.656;11.302;2024-03-02T12:31:40;8.10;;;4.32;;
33160;SDS011;19522;45.656;11.302;2024-03-02T12:34:07;10.00;;;3.72;;
33160;SDS011;19522;45.656;11.302;2024-03-02T12:36:39;8.77;;;3.92;;
33160;SDS011;19522;45.656;11.302;2024-03-02T12:39:06;9.93;;;4.72;;
33160;SDS011;19522;45.656;11.302;2024-03-02T12:41:35;7.47;;;4.30;;
33160;SDS011;19522;45.656;11.302;2024-03-02T12:44:02;8.02;;;4.45;;
33160;SDS011;19522;45.656;11.302;2024-03-02T12:46:28;8.55;;;4.30;;
33160;SDS011;19522;45.656;11.302;2024-03-02T12:48:53;10.18;;;4.57;;
33160;SDS011;19522;45.656;11.302;2024-03-02T12:51:19;7.53;;;4.60;;
33160;SDS011;19522;45.656;11.302;2024-03-02T12:53:44;6.95;;;3.30;;
33160;SDS011;19522;45.656;11.302;2024-03-02T12:56:10;5.38;;;3.22;;
33160;SDS011;19522;45.656;11.302;2024-03-02T12:58:39;6.20;;;3.15;;
33160;SDS011;19522;45.656;11.302;2024-03-02T13:01:08;6.22;;;3.03;;
33160;SDS011;19522;45.656;11.302;2024-03-02T13:03:40;4.68;;;3.15;;
33160;SDS011;19522;45.656;11.302;2024-03-02T13:06:06;8.85;;;4.28;;
33160;SDS011;19522;45.656;11.302;2024-03-02T13:08:33;9.52;;;5.10;;
33160;SDS011;19522;45.656;11.302;2024-03-02T13:10:58;9.07;;;5.00;;
33160;SDS011;19522;45.656;11.302;2024-03-02T13:13:24;12.88;;;5.70;;
33160;SDS011;19522;45.656;11.302;2024-03-02T13:15:50;10.43;;;5.35;;
33160;SDS011;19522;45.656;11.302;2024-03-02T13:18:19;9.55;;;5.00;;
33160;SDS011;19522;45.656;11.302;2024-03-02T13:20:44;9.32;;;5.18;;
33160;SDS011;19522;45.656;11.302;2024-03-02T13:23:10;6.63;;;4.25;;
33160;SDS011;19522;45.656;11.302;2024-03-02T13:25:35;5.18;;;3.33;;
33160;SDS011;19522;45.656;11.302;2024-03-02T13:28:01;4.13;;;2.88;;
33160;SDS011;19522;45.656;11.302;2024-03-02T13:30:28;4.30;;;3.17;;
33160;SDS011;19522;45.656;11.302;2024-03-02T13:32:53;11.20;;;2.95;;
33160;SDS011;19522;45.656;11.302;2024-03-02T13:35:19;4.97;;;3.10;;
33160;SDS011;19522;45.656;11.302;2024-03-02T13:37:44;7.78;;;3.10;;
33160;SDS011;19522;45.656;11.302;2024-03-02T13:40:10;6.32;;;3.63;;
33160;SDS011;19522;45.656;11.302;2024-03-02T13:42:39;7.55;;;3.25;;
33160;SDS011;19522;45.656;11.302;2024-03-02T13:45:05;4.68;;;3.38;;
33160;SDS011;19522;45.656;11.302;2024-03-02T13:47:31;5.95;;;3.10;;
33160;SDS011;19522;45.656;11.302;2024-03-02T13:49:57;6.70;;;3.60;;
33160;SDS011;19522;45.656;11.302;2024-03-02T13:52:25;6.50;;;3.78;;
33160;SDS011;19522;45.656;11.302;2024-03-02T13:54:51;8.35;;;4.88;;
33160;SDS011;19522;45.656;11.302;2024-03-02T13:57:17;8.15;;;4.45;;
33160;SDS011;19522;45.656;11.302;2024-03-02T13:59:45;7.60;;;3.55;;
33160;SDS011;19522;45.656;11.302;2024-03-02T14:02:10;3.53;;;2.10;;
33160;SDS011;19522;45.656;11.302;2024-03-02T14:04:37;5.28;;;2.58;;
33160;SDS011;19522;45.656;11.302;2024-03-02T14:07:03;3.58;;;1.92;;
33160;SDS011;19522;45.656;11.302;2024-03-02T14:09:32;7.25;;;2.97;;
33160;SDS011;19522;45.656;11.302;2024-03-02T14:11:57;3.92;;;2.60;;
33160;SDS011;19522;45.656;11.302;2024-03-02T14:14:25;3.88;;;2.50;;
33160;SDS011;19522;45.656;11.302;2024-03-02T14:16:54;4.72;;;2.95;;
33160;SDS011;19522;45.656;11.302;2024-03-02T14:19:30;6.75;;;3.55;;
33160;SDS011;19522;45.656;11.302;2024-03-02T14:21:56;7.88;;;3.85;;
33160;SDS011;19522;45.656;11.302;2024-03-02T14:24:21;5.40;;;3.22;;
33160;SDS011;19522;45.656;11.302;2024-03-02T14:26:51;4.53;;;2.65;;
33160;SDS011;19522;45.656;11.302;2024-03-02T14:29:19;4.72;;;2.63;;
33160;SDS011;19522;45.656;11.302;2024-03-02T14:31:45;7.25;;;3.08;;
33160;SDS011;19522;45.656;11.302;2024-03-02T14:34:13;5.90;;;2.55;;
33160;SDS011;19522;45.656;11.302;2024-03-02T14:36:39;5.35;;;2.58;;
33160;SDS011;19522;45.656;11.302;2024-03-02T14:39:06;4.32;;;2.58;;
33160;SDS011;19522;45.656;11.302;2024-03-02T14:41:35;3.22;;;2.05;;
33160;SDS011;19522;45.656;11.302;2024-03-02T14:44:01;3.17;;;2.17;;